Ménara, Morocco

10:35 AM WEST on July 24, 2016 (GMT +0100)
Menara | | Change Station

Elev 1529 ft 31.61 °N, 8.04 °W | Updated 5 minutes ago

Scattered Clouds
Scattered Clouds
93 °F
Feels Like 93 °F
N
5
Wind Variable Wind from Variable

Today
High -- | Low -- °F
--% Chance of Precip.
Yesterday
High -- | Low -- °F
Precip. -- in
Pressure 29.92 in
Visibility 6.2 miles
Clouds Scattered Clouds 10000 ft
Dew Point 50 °F
Humidity 23%
Rainfall 0.00 in
Snow Depth Not available.
6:43 AM 8:33 PM
Waning Gibbous, 78% visible
METAR GMMX 240930Z VRB04KT 9999 SCT100 34/10 Q1013 NOSIG
Pressure 29.92 in
Visibility 6.2 miles
Clouds Scattered Clouds 10000 ft
Dew Point 50 °F
Humidity 23%
Rainfall 0.00 in
Snow Depth Not available.
6:43 AM 8:33 PM
Waning Gibbous, 78% visible
METAR GMMX 240930Z VRB04KT 9999 SCT100 34/10 Q1013 NOSIG

10-Day Weather Forecast

No radar image for this location.
×

Almanac

Astronomy

Jul. 24, 2016 Rise Set
Actual Time
Civil Twilight
Nautical Twilight
Astronomical Twilight
Moon
Length of Visible Light
Length of Day
Tomorrow will be .
, % of the Moon is Illuminated

Today's Extremes

Country Highs Country Lows

Community

WunderPhotos

Upload Photos

1,927,042 photos uploaded!

WunderBlog® & News

Nearby

Air Quality

  Air Quality AQ Index Pollutant
Not available.

Snow Depth

Station Depth Elevation

Earthquake Activity

City Distance Mag. Time & Date
Minimum magnitude displayed is 2.5.

Coastal Water Temperatures

Place Temperature

Stations

Nearby Weather Stations

Station Location Temp. Windchill Dew Point Humidity Wind Precip. Elev Updated Type